createdAt,value
2018-07-07T00:00:02.180Z,19.00
2018-07-07T00:02:30.236Z,19.00
2018-07-07T00:04:58.282Z,18.90
2018-07-07T00:07:26.348Z,18.90
2018-07-07T00:09:54.392Z,18.80
2018-07-07T00:12:22.446Z,18.80
2018-07-07T00:14:50.496Z,18.80
2018-07-07T00:17:18.549Z,18.80
2018-07-07T00:19:46.601Z,18.70
2018-07-07T00:22:14.665Z,18.70
2018-07-07T00:24:42.716Z,18.70
2018-07-07T00:27:10.764Z,18.60
2018-07-07T00:29:38.817Z,18.60
2018-07-07T00:32:07.095Z,18.60
2018-07-07T00:34:35.209Z,18.50
2018-07-07T00:37:03.257Z,18.50
2018-07-07T00:39:31.317Z,18.50
2018-07-07T00:41:59.356Z,18.40
2018-07-07T00:44:27.426Z,18.50
2018-07-07T00:46:55.468Z,18.40
2018-07-07T00:49:23.508Z,18.40
2018-07-07T00:51:51.548Z,18.40
2018-07-07T00:54:19.790Z,18.50
2018-07-07T00:56:47.837Z,18.50
2018-07-07T00:59:15.916Z,18.50
2018-07-07T01:01:43.965Z,18.50
2018-07-07T01:04:12.028Z,18.50
2018-07-07T01:06:40.073Z,18.50
2018-07-07T01:09:08.121Z,18.40
2018-07-07T01:11:36.193Z,18.40
2018-07-07T01:14:04.273Z,18.40
2018-07-07T01:16:32.340Z,18.40
2018-07-07T01:19:00.408Z,18.40
2018-07-07T01:21:28.468Z,18.50
2018-07-07T01:23:56.544Z,18.50
2018-07-07T01:26:24.609Z,18.60
2018-07-07T01:28:52.676Z,18.60
2018-07-07T01:31:20.739Z,18.70
2018-07-07T01:33:48.812Z,18.70
2018-07-07T01:36:17.017Z,18.80
2018-07-07T01:38:45.089Z,18.80
2018-07-07T01:41:13.152Z,18.80
2018-07-07T01:43:41.228Z,18.80
2018-07-07T01:46:09.288Z,18.70
2018-07-07T01:48:37.370Z,18.70
2018-07-07T01:51:05.428Z,18.70
2018-07-07T01:53:33.496Z,18.70
2018-07-07T01:56:01.556Z,18.70
2018-07-07T01:58:29.632Z,18.60
2018-07-07T02:03:25.553Z,18.50
2018-07-07T02:05:53.632Z,18.50
2018-07-07T02:08:21.725Z,18.40
2018-07-07T02:10:49.800Z,18.40
2018-07-07T02:13:17.853Z,18.30
2018-07-07T02:15:45.902Z,18.30
2018-07-07T02:18:13.940Z,18.30
2018-07-07T02:20:41.997Z,18.30
2018-07-07T02:23:10.046Z,18.30
2018-07-07T02:25:38.092Z,18.30
2018-07-07T02:28:06.361Z,18.30
2018-07-07T02:30:34.414Z,18.30
2018-07-07T02:33:02.454Z,18.30
2018-07-07T02:35:30.505Z,18.30
2018-07-07T02:37:58.545Z,18.30
2018-07-07T02:40:26.614Z,18.30
2018-07-07T02:42:54.653Z,18.30
2018-07-07T02:45:22.712Z,18.30
2018-07-07T02:47:50.805Z,18.30
2018-07-07T02:50:18.854Z,18.30
2018-07-07T02:52:46.935Z,18.30
2018-07-07T02:55:14.977Z,18.30
2018-07-07T02:57:43.198Z,18.30
2018-07-07T03:00:11.260Z,18.20
2018-07-07T03:02:39.305Z,18.10
2018-07-07T03:05:07.367Z,18.00
2018-07-07T03:07:35.405Z,18.00
2018-07-07T03:10:04.472Z,17.90
2018-07-07T03:12:32.523Z,17.90
2018-07-07T03:15:00.665Z,17.80
2018-07-07T03:19:56.556Z,17.80
2018-07-07T03:22:24.593Z,17.70
2018-07-07T03:24:52.645Z,17.70
2018-07-07T03:27:20.680Z,17.70
2018-07-07T03:29:48.728Z,17.70
2018-07-07T03:32:16.777Z,17.70
2018-07-07T03:34:44.829Z,17.60
2018-07-07T03:37:12.872Z,17.60
2018-07-07T03:39:40.937Z,17.60
2018-07-07T03:42:08.989Z,17.60
2018-07-07T03:47:05.084Z,17.60
2018-07-07T03:49:33.143Z,17.60
2018-07-07T03:52:01.180Z,17.60
2018-07-07T03:54:29.242Z,17.60
2018-07-07T03:56:57.552Z,17.70
2018-07-07T03:59:25.602Z,17.70
2018-07-07T04:01:53.644Z,17.70
2018-07-07T04:04:21.692Z,17.80
2018-07-07T04:06:49.824Z,17.80
2018-07-07T04:09:17.879Z,17.90
2018-07-07T04:11:45.952Z,17.90
2018-07-07T04:14:14.022Z,18.00
2018-07-07T04:16:42.080Z,18.10
2018-07-07T04:19:10.160Z,18.10
2018-07-07T04:21:38.234Z,18.30
2018-07-07T04:24:06.301Z,18.30
2018-07-07T04:26:34.368Z,18.40
2018-07-07T04:29:02.429Z,18.50
2018-07-07T04:31:30.501Z,18.60
2018-07-07T04:33:58.557Z,18.60
2018-07-07T04:36:26.625Z,18.70
2018-07-07T04:38:54.693Z,18.80
2018-07-07T04:41:22.761Z,18.90
2018-07-07T04:43:50.828Z,19.00
2018-07-07T04:46:18.894Z,19.00
2018-07-07T04:48:46.956Z,19.10
2018-07-07T04:51:15.030Z,19.20
2018-07-07T04:53:43.089Z,19.30
2018-07-07T04:56:11.161Z,19.40
2018-07-07T04:58:39.229Z,19.50
2018-07-07T05:01:07.292Z,19.60
2018-07-07T05:03:35.356Z,19.70
2018-07-07T05:06:03.416Z,19.80
2018-07-07T05:08:31.472Z,19.80
2018-07-07T05:10:59.533Z,19.90
2018-07-07T05:13:27.572Z,20.00
2018-07-07T05:15:55.620Z,20.10
2018-07-07T05:18:23.656Z,20.10
2018-07-07T05:20:51.733Z,20.10
2018-07-07T05:23:19.852Z,20.20
2018-07-07T05:25:47.926Z,20.20
2018-07-07T05:28:15.976Z,20.20
2018-07-07T05:30:44.034Z,20.20
2018-07-07T05:33:12.075Z,20.20
2018-07-07T05:35:40.150Z,20.30
2018-07-07T05:38:08.183Z,20.40
2018-07-07T05:40:36.232Z,20.40
2018-07-07T05:43:04.320Z,20.50
2018-07-07T05:45:32.395Z,20.50
2018-07-07T05:48:00.423Z,20.50
2018-07-07T05:50:28.632Z,20.40
2018-07-07T05:52:56.685Z,20.50
2018-07-07T05:55:24.736Z,20.50
2018-07-07T05:57:52.780Z,20.60
2018-07-07T06:00:20.837Z,20.60
2018-07-07T06:02:48.872Z,20.70
2018-07-07T06:05:16.924Z,20.70
2018-07-07T06:07:44.959Z,20.80
2018-07-07T06:10:13.016Z,20.90
2018-07-07T06:12:41.080Z,21.00
2018-07-07T06:15:09.565Z,21.10
2018-07-07T06:17:37.632Z,21.20
2018-07-07T06:20:05.696Z,21.40
2018-07-07T06:22:33.765Z,21.50
2018-07-07T06:25:01.828Z,21.70
2018-07-07T06:27:29.889Z,21.90
2018-07-07T06:29:58.272Z,22.10
2018-07-07T06:32:26.560Z,22.20
2018-07-07T06:34:54.616Z,22.30
2018-07-07T06:37:23.200Z,22.30
2018-07-07T06:39:51.190Z,22.30
2018-07-07T06:42:19.253Z,22.40
2018-07-07T06:44:47.307Z,22.40
2018-07-07T06:47:15.368Z,22.50
2018-07-07T06:49:43.428Z,22.70
2018-07-07T06:52:11.504Z,22.90
2018-07-07T06:54:39.560Z,23.00
2018-07-07T06:57:07.624Z,23.20
2018-07-07T06:59:35.732Z,23.30
2018-07-07T07:02:03.746Z,23.40
2018-07-07T07:04:31.812Z,23.40
2018-07-07T07:06:59.877Z,23.40
2018-07-07T07:09:28.235Z,23.50
2018-07-07T07:11:56.323Z,23.50
2018-07-07T07:14:25.224Z,23.50
2018-07-07T07:16:53.276Z,23.50
2018-07-07T07:19:21.308Z,23.50
2018-07-07T07:21:49.348Z,23.50
2018-07-07T07:24:17.455Z,23.70
2018-07-07T07:26:45.476Z,24.40
2018-07-07T07:29:13.517Z,25.20
2018-07-07T07:31:41.576Z,25.90
2018-07-07T07:34:09.608Z,26.50
2018-07-07T07:36:40.444Z,27.00
2018-07-07T07:39:08.484Z,27.40
2018-07-07T07:41:36.536Z,27.80
2018-07-07T07:44:05.180Z,28.10
2018-07-07T07:46:33.407Z,28.30
2018-07-07T07:49:01.456Z,28.50
2018-07-07T07:51:29.626Z,28.70
2018-07-07T07:53:58.172Z,29.00
2018-07-07T07:56:27.184Z,29.20
2018-07-07T07:58:55.862Z,29.20
2018-07-07T08:01:24.065Z,29.40
2018-07-07T08:03:52.120Z,29.50
2018-07-07T08:06:20.233Z,29.60
2018-07-07T08:08:48.276Z,29.80
2018-07-07T08:11:16.328Z,30.00
2018-07-07T08:13:44.370Z,30.20
2018-07-07T08:16:12.581Z,30.40
2018-07-07T08:18:40.643Z,30.40
2018-07-07T08:21:08.672Z,30.60
2018-07-07T08:23:36.732Z,30.70
2018-07-07T08:26:05.057Z,30.90
2018-07-07T08:28:33.154Z,31.10
2018-07-07T08:31:01.153Z,31.20
2018-07-07T08:33:29.190Z,31.40
2018-07-07T08:35:57.232Z,31.50
2018-07-07T08:38:25.276Z,31.30
2018-07-07T08:40:53.348Z,31.40
2018-07-07T08:43:21.716Z,31.20
2018-07-07T08:45:49.752Z,31.40
2018-07-07T08:48:17.801Z,31.70
2018-07-07T08:50:46.165Z,31.70
2018-07-07T08:53:14.670Z,31.60
2018-07-07T08:55:42.725Z,31.70
2018-07-07T08:58:10.769Z,31.60
2018-07-07T09:00:38.808Z,31.50
2018-07-07T09:03:07.521Z,31.40
2018-07-07T09:05:35.560Z,31.30
2018-07-07T09:08:04.100Z,31.30
2018-07-07T09:10:32.380Z,31.60
2018-07-07T09:13:00.575Z,31.50
2018-07-07T09:15:28.960Z,31.00
2018-07-07T09:17:57.020Z,30.70
2018-07-07T09:20:25.084Z,30.80
2018-07-07T09:22:53.157Z,30.50
2018-07-07T09:25:21.217Z,30.50
2018-07-07T09:27:49.284Z,30.70
2018-07-07T09:30:17.344Z,31.00
2018-07-07T09:32:45.408Z,31.50
2018-07-07T09:35:13.522Z,31.70
2018-07-07T09:37:41.565Z,32.20
2018-07-07T09:40:09.628Z,32.50
2018-07-07T09:42:37.712Z,32.70
2018-07-07T09:45:05.804Z,32.80
2018-07-07T09:47:33.876Z,32.90
2018-07-07T09:50:01.941Z,33.30
2018-07-07T09:52:30.017Z,33.60
2018-07-07T09:54:58.079Z,33.50
2018-07-07T09:57:26.144Z,33.20
2018-07-07T09:59:54.208Z,33.30
2018-07-07T10:02:22.269Z,33.60
2018-07-07T10:04:50.335Z,33.80
2018-07-07T10:07:18.408Z,34.00
2018-07-07T10:09:46.457Z,33.90
2018-07-07T10:12:14.536Z,34.00
2018-07-07T10:14:42.605Z,34.30
2018-07-07T10:17:10.676Z,34.70
2018-07-07T10:19:38.737Z,34.80
2018-07-07T10:22:06.932Z,35.00
2018-07-07T10:24:34.987Z,35.10
2018-07-07T10:27:03.056Z,35.30
2018-07-07T10:29:31.128Z,35.50
2018-07-07T10:31:59.200Z,35.80
2018-07-07T10:34:27.300Z,35.90
2018-07-07T10:36:55.364Z,36.10
2018-07-07T10:39:23.424Z,36.30
2018-07-07T10:41:51.476Z,36.50
2018-07-07T10:44:19.549Z,36.30
2018-07-07T10:46:47.592Z,36.20
2018-07-07T10:49:15.657Z,36.20
2018-07-07T10:51:43.740Z,36.30
2018-07-07T10:54:11.796Z,36.60
2018-07-07T10:56:39.855Z,36.60
2018-07-07T10:59:07.924Z,36.50
2018-07-07T11:01:35.981Z,36.50
2018-07-07T11:04:04.053Z,36.60
2018-07-07T11:06:32.226Z,36.80
2018-07-07T11:09:00.304Z,37.10
2018-07-07T11:11:28.364Z,37.20
2018-07-07T11:13:56.505Z,37.30
2018-07-07T11:16:24.542Z,36.70
2018-07-07T11:18:52.610Z,36.20
2018-07-07T11:21:20.717Z,36.10
2018-07-07T11:23:48.776Z,35.90
2018-07-07T11:26:16.831Z,35.70
2018-07-07T11:28:44.898Z,35.80
2018-07-07T11:31:12.951Z,36.00
2018-07-07T11:33:41.025Z,36.10
2018-07-07T11:36:09.090Z,36.30
2018-07-07T11:38:37.247Z,36.30
2018-07-07T11:41:05.705Z,36.40
2018-07-07T11:43:33.777Z,36.20
2018-07-07T11:46:01.837Z,36.00
2018-07-07T11:48:29.966Z,35.40
2018-07-07T11:50:58.014Z,35.10
2018-07-07T11:53:26.085Z,34.90
2018-07-07T11:55:54.145Z,35.00
2018-07-07T11:58:22.217Z,35.40
2018-07-07T12:00:50.272Z,35.80
2018-07-07T12:03:18.402Z,36.00
2018-07-07T12:05:46.448Z,36.10
2018-07-07T12:08:14.512Z,36.30
2018-07-07T12:10:42.593Z,36.50
2018-07-07T12:13:10.683Z,36.80
2018-07-07T12:15:38.740Z,37.30
2018-07-07T12:18:06.808Z,37.40
2018-07-07T12:20:35.109Z,37.30
2018-07-07T12:23:03.165Z,37.20
2018-07-07T12:25:31.217Z,36.70
2018-07-07T12:27:59.284Z,36.60
2018-07-07T12:30:27.439Z,36.70
2018-07-07T12:32:55.485Z,36.80
2018-07-07T12:35:23.532Z,36.70
2018-07-07T12:37:51.592Z,36.60
2018-07-07T12:40:19.650Z,36.40
2018-07-07T12:42:47.764Z,36.60
2018-07-07T12:45:15.826Z,36.40
2018-07-07T12:47:43.891Z,36.40
2018-07-07T12:50:11.953Z,36.60
2018-07-07T12:52:40.009Z,36.90
2018-07-07T12:55:08.073Z,36.80
2018-07-07T12:57:36.696Z,36.40
2018-07-07T13:00:04.956Z,36.10
2018-07-07T13:02:33.116Z,35.70
2018-07-07T13:05:01.176Z,35.40
2018-07-07T13:07:29.229Z,35.20
2018-07-07T13:09:57.292Z,35.00
2018-07-07T13:12:25.361Z,34.90
2018-07-07T13:14:53.421Z,34.70
2018-07-07T13:17:21.477Z,34.60
2018-07-07T13:19:49.541Z,34.50
2018-07-07T13:22:17.832Z,34.70
2018-07-07T13:24:45.872Z,35.00
2018-07-07T13:27:13.924Z,35.30
2018-07-07T13:29:41.995Z,35.50
2018-07-07T13:32:10.233Z,35.80
2018-07-07T13:34:39.085Z,36.00
2018-07-07T13:37:07.268Z,35.90
2018-07-07T13:39:38.228Z,35.80
2018-07-07T13:42:07.401Z,35.50
2018-07-07T13:47:03.313Z,35.30
2018-07-07T13:49:31.359Z,35.20
2018-07-07T13:51:59.393Z,35.20
2018-07-07T13:54:27.448Z,35.10
2018-07-07T13:56:55.488Z,34.80
2018-07-07T13:59:23.556Z,34.70
2018-07-07T14:01:51.596Z,34.60
2018-07-07T14:04:19.960Z,34.40
2018-07-07T14:06:47.992Z,34.20
2018-07-07T14:09:16.034Z,34.00
2018-07-07T14:11:44.132Z,33.70
2018-07-07T14:14:12.212Z,33.30
2018-07-07T14:16:40.256Z,33.00
2018-07-07T14:19:08.309Z,32.70
2018-07-07T14:21:36.484Z,32.60
2018-07-07T14:24:04.560Z,32.60
2018-07-07T14:26:32.676Z,32.60
2018-07-07T14:29:00.736Z,32.60
2018-07-07T14:31:28.784Z,32.50
2018-07-07T14:33:57.008Z,32.40
2018-07-07T14:36:25.137Z,32.50
2018-07-07T14:38:53.253Z,32.60
2018-07-07T14:41:22.493Z,32.70
2018-07-07T14:43:54.900Z,32.80
2018-07-07T14:46:23.475Z,32.80
2018-07-07T14:48:51.869Z,32.70
2018-07-07T14:51:19.959Z,32.70
2018-07-07T14:53:48.136Z,32.70
2018-07-07T14:56:17.456Z,32.70
2018-07-07T14:58:45.532Z,32.80
2018-07-07T15:01:13.673Z,32.90
2018-07-07T15:03:42.116Z,32.90
2018-07-07T15:06:10.312Z,32.90
2018-07-07T15:08:38.384Z,32.70
2018-07-07T15:11:07.032Z,32.50
2018-07-07T15:13:35.081Z,32.50
2018-07-07T15:16:03.267Z,32.60
2018-07-07T15:18:31.853Z,32.60
2018-07-07T15:20:59.964Z,32.40
2018-07-07T15:23:28.000Z,32.30
2018-07-07T15:25:56.060Z,32.20
2018-07-07T15:28:24.109Z,32.10
2018-07-07T15:30:52.172Z,32.10
2018-07-07T15:33:20.248Z,32.10
2018-07-07T15:35:48.456Z,32.00
2018-07-07T15:38:16.496Z,32.00
2018-07-07T15:40:44.572Z,32.00
2018-07-07T15:43:12.624Z,32.10
2018-07-07T15:45:40.673Z,32.10
2018-07-07T15:48:08.876Z,32.20
2018-07-07T15:50:37.069Z,32.10
2018-07-07T15:53:05.180Z,32.10
2018-07-07T15:55:33.233Z,32.00
2018-07-07T15:58:01.292Z,31.80
2018-07-07T16:00:29.340Z,31.70
2018-07-07T16:02:57.684Z,31.70
2018-07-07T16:05:25.773Z,31.60
2018-07-07T16:07:53.828Z,31.60
2018-07-07T16:10:22.148Z,31.60
2018-07-07T16:12:50.221Z,31.70
2018-07-07T16:15:18.348Z,31.60
2018-07-07T16:17:46.341Z,31.50
2018-07-07T16:20:14.413Z,31.50
2018-07-07T16:22:42.472Z,31.40
2018-07-07T16:25:10.650Z,31.30
2018-07-07T16:27:38.676Z,31.30
2018-07-07T16:30:06.768Z,31.20
2018-07-07T16:32:34.844Z,31.10
2018-07-07T16:35:02.981Z,30.90
2018-07-07T16:37:31.021Z,30.90
2018-07-07T16:39:59.100Z,31.00
2018-07-07T16:42:27.145Z,31.00
2018-07-07T16:44:55.213Z,31.00
2018-07-07T16:47:23.274Z,30.90
2018-07-07T16:49:51.348Z,30.70
2018-07-07T16:52:19.416Z,30.60
2018-07-07T16:54:47.488Z,30.50
2018-07-07T16:57:16.577Z,30.50
2018-07-07T16:59:44.760Z,30.40
2018-07-07T17:02:13.060Z,30.30
2018-07-07T17:04:41.140Z,30.10
2018-07-07T17:07:09.217Z,30.00
2018-07-07T17:09:37.317Z,29.80
2018-07-07T17:12:05.595Z,29.60
2018-07-07T17:14:33.858Z,29.50
2018-07-07T17:17:01.913Z,29.50
2018-07-07T17:19:29.957Z,29.50
2018-07-07T17:21:58.007Z,29.50
2018-07-07T17:24:28.537Z,29.40
2018-07-07T17:26:56.593Z,29.30
2018-07-07T17:29:24.632Z,29.20
2018-07-07T17:31:52.685Z,29.00
2018-07-07T17:34:20.728Z,29.00
2018-07-07T17:36:48.779Z,29.00
2018-07-07T17:39:16.820Z,28.90
2018-07-07T17:41:44.916Z,28.80
2018-07-07T17:46:40.828Z,28.80
2018-07-07T17:49:08.868Z,28.70
2018-07-07T17:54:04.764Z,28.70
2018-07-07T17:56:32.812Z,28.70
2018-07-07T18:01:29.033Z,28.60
2018-07-07T18:03:57.222Z,28.50
2018-07-07T18:06:25.259Z,28.40
2018-07-07T18:08:53.293Z,28.40
2018-07-07T18:11:21.349Z,28.30
2018-07-07T18:13:49.390Z,28.30
2018-07-07T18:16:17.434Z,28.20
2018-07-07T18:18:45.468Z,28.20
2018-07-07T18:21:13.624Z,28.10
2018-07-07T18:23:41.653Z,28.10
2018-07-07T18:26:09.696Z,28.00
2018-07-07T18:28:37.746Z,28.00
2018-07-07T18:31:05.826Z,27.90
2018-07-07T18:33:33.860Z,27.80
2018-07-07T18:36:01.904Z,27.70
2018-07-07T18:38:29.946Z,27.50
2018-07-07T18:40:57.984Z,27.50
2018-07-07T18:43:26.185Z,27.40
2018-07-07T18:45:54.238Z,27.40
2018-07-07T18:48:22.280Z,27.30
2018-07-07T18:50:50.377Z,27.20
2018-07-07T18:53:18.410Z,27.10
2018-07-07T18:55:46.444Z,27.00
2018-07-07T18:58:14.484Z,27.00
2018-07-07T19:00:42.557Z,27.00
2018-07-07T19:03:10.604Z,26.70
2018-07-07T19:05:38.640Z,26.70
2018-07-07T19:08:06.689Z,26.50
2018-07-07T19:10:34.740Z,26.40
2018-07-07T19:13:02.801Z,26.40
2018-07-07T19:15:30.919Z,26.20
2018-07-07T19:17:58.916Z,26.10
2018-07-07T19:20:32.380Z,26.00
2018-07-07T19:23:06.001Z,25.90
2018-07-07T19:25:39.568Z,25.80
2018-07-07T19:28:07.601Z,25.70
2018-07-07T19:30:35.652Z,25.60
2018-07-07T19:33:09.252Z,25.50
2018-07-07T19:35:42.949Z,25.50
2018-07-07T19:38:10.997Z,25.40
2018-07-07T19:40:39.065Z,25.30
2018-07-07T19:43:07.112Z,25.20
2018-07-07T19:45:35.168Z,25.10
2018-07-07T19:48:03.224Z,25.00
2018-07-07T19:50:31.276Z,24.90
2018-07-07T19:52:59.336Z,24.80
2018-07-07T19:55:27.851Z,24.80
2018-07-07T19:57:55.888Z,24.80
2018-07-07T20:00:23.940Z,24.70
2018-07-07T20:02:52.006Z,24.60
2018-07-07T20:05:20.060Z,24.60
2018-07-07T20:07:48.160Z,24.50
2018-07-07T20:10:16.183Z,24.40
2018-07-07T20:12:44.292Z,24.40
2018-07-07T20:15:12.345Z,24.30
2018-07-07T20:17:53.676Z,24.30
2018-07-07T20:20:33.992Z,24.20
2018-07-07T20:23:03.068Z,24.20
2018-07-07T20:25:31.126Z,24.10
2018-07-07T20:28:04.629Z,24.00
2018-07-07T20:30:33.001Z,23.90
2018-07-07T20:33:01.060Z,23.80
2018-07-07T20:35:29.275Z,23.80
2018-07-07T20:37:57.461Z,23.70
2018-07-07T20:40:25.608Z,23.70
2018-07-07T20:42:53.668Z,23.60
2018-07-07T20:45:21.780Z,23.60
2018-07-07T20:47:56.274Z,23.60
2018-07-07T20:50:25.713Z,23.50
2018-07-07T20:52:53.772Z,23.40
2018-07-07T20:55:21.926Z,23.40
2018-07-07T20:57:49.975Z,23.40
2018-07-07T21:00:18.056Z,23.30
2018-07-07T21:02:46.140Z,23.30
2018-07-07T21:05:14.226Z,23.20
2018-07-07T21:07:42.317Z,23.20
2018-07-07T21:10:10.425Z,23.10
2018-07-07T21:12:38.509Z,23.10
2018-07-07T21:15:06.689Z,23.00
2018-07-07T21:17:34.746Z,23.00
2018-07-07T21:20:02.808Z,22.90
2018-07-07T21:22:30.864Z,22.80
2018-07-07T21:24:58.929Z,22.70
2018-07-07T21:27:26.984Z,22.70
2018-07-07T21:29:55.068Z,22.60
2018-07-07T21:32:23.212Z,22.60
2018-07-07T21:34:51.277Z,22.50
2018-07-07T21:37:19.337Z,22.40
2018-07-07T21:39:47.405Z,22.40
2018-07-07T21:42:15.463Z,22.30
2018-07-07T21:44:43.600Z,22.30
2018-07-07T21:47:11.660Z,22.20
2018-07-07T21:49:39.801Z,22.20
2018-07-07T21:52:07.835Z,22.20
2018-07-07T21:54:35.945Z,22.20
2018-07-07T21:57:03.999Z,22.10
2018-07-07T21:59:32.053Z,22.10
2018-07-07T22:02:05.546Z,22.00
2018-07-07T22:04:39.168Z,22.00
2018-07-07T22:07:13.229Z,22.00
2018-07-07T22:09:42.204Z,22.00
2018-07-07T22:12:10.280Z,21.90
2018-07-07T22:14:38.341Z,21.90
2018-07-07T22:17:06.421Z,21.80
2018-07-07T22:19:34.493Z,21.80
2018-07-07T22:22:06.416Z,21.70
2018-07-07T22:24:34.605Z,21.60
2018-07-07T22:27:03.921Z,21.60
2018-07-07T22:29:32.000Z,21.50
2018-07-07T22:32:01.311Z,21.50
2018-07-07T22:34:32.787Z,21.40
2018-07-07T22:37:00.964Z,21.30
2018-07-07T22:39:29.152Z,21.20
2018-07-07T22:42:00.321Z,21.10
2018-07-07T22:44:28.417Z,21.00
2018-07-07T22:46:56.677Z,20.90
2018-07-07T22:49:25.686Z,20.80
2018-07-07T22:51:53.973Z,20.70
2018-07-07T22:54:22.036Z,20.70
2018-07-07T22:56:50.130Z,20.60
2018-07-07T22:59:18.184Z,20.50
2018-07-07T23:04:14.112Z,20.40
2018-07-07T23:06:43.301Z,20.40
2018-07-07T23:09:12.517Z,20.30
2018-07-07T23:11:40.614Z,20.20
2018-07-07T23:14:08.789Z,20.20
2018-07-07T23:16:36.854Z,20.10
2018-07-07T23:19:05.989Z,20.10
2018-07-07T23:21:34.277Z,20.00
2018-07-07T23:24:02.703Z,20.00
2018-07-07T23:26:31.157Z,19.90
2018-07-07T23:29:00.068Z,19.80
2018-07-07T23:31:28.120Z,19.80
2018-07-07T23:33:56.181Z,19.70
2018-07-07T23:36:24.240Z,19.70
2018-07-07T23:38:52.312Z,19.60
2018-07-07T23:41:20.380Z,19.50
2018-07-07T23:43:48.490Z,19.40
2018-07-07T23:46:16.517Z,19.30
2018-07-07T23:48:44.577Z,19.30
2018-07-07T23:51:12.645Z,19.10
2018-07-07T23:53:40.807Z,19.10
2018-07-07T23:56:09.207Z,19.00
2018-07-07T23:58:37.344Z,18.90
